sensor_id;sensor_type;location;lat;lon;timestamp;P1;P2;P0
76045;PMS7003;64741;41.730;44.788;2023-03-16T00:04:18;18.6;15.4;10.4
76045;PMS7003;64741;41.730;44.788;2023-03-16T00:09:10;18.6;17.4;13
76045;PMS7003;64741;41.730;44.788;2023-03-16T00:14:18;19.4;17;12.4
76045;PMS7003;64741;41.730;44.788;2023-03-16T00:19:12;19.8;16.8;12.6
76045;PMS7003;64741;41.730;44.788;2023-03-16T00:24:12;19;16.4;11.8
76045;PMS7003;64741;41.730;44.788;2023-03-16T00:29:08;17.2;15.6;11.8
76045;PMS7003;64741;41.730;44.788;2023-03-16T00:34:18;18.8;17.4;13
76045;PMS7003;64741;41.730;44.788;2023-03-16T00:39:10;17.8;16.8;12
76045;PMS7003;64741;41.730;44.788;2023-03-16T00:44:10;18.4;17.2;12.6
76045;PMS7003;64741;41.730;44.788;2023-03-16T00:49:18;18.8;17.2;12.4
76045;PMS7003;64741;41.730;44.788;2023-03-16T00:54:10;17.4;15.2;11.2
76045;PMS7003;64741;41.730;44.788;2023-03-16T00:59:12;18.8;16.8;11.6
76045;PMS7003;64741;41.730;44.788;2023-03-16T01:04:12;15.6;15;11.4
76045;PMS7003;64741;41.730;44.788;2023-03-16T01:09:08;20.6;17.6;13
76045;PMS7003;64741;41.730;44.788;2023-03-16T01:14:12;17.8;14.8;11.2
76045;PMS7003;64741;41.730;44.788;2023-03-16T01:19:10;15.6;14.4;10.8
76045;PMS7003;64741;41.730;44.788;2023-03-16T01:24:10;17;15;11.4
76045;PMS7003;64741;41.730;44.788;2023-03-16T01:29:10;18.8;17;12.4
76045;PMS7003;64741;41.730;44.788;2023-03-16T01:34:18;18;16.2;11.8
76045;PMS7003;64741;41.730;44.788;2023-03-16T01:39:10;15.4;14.4;10.6
76045;PMS7003;64741;41.730;44.788;2023-03-16T01:44:19;15.8;13.6;10.2
76045;PMS7003;64741;41.730;44.788;2023-03-16T01:49:12;14;13.2;9.6
76045;PMS7003;64741;41.730;44.788;2023-03-16T01:54:10;15.2;13.8;10
76045;PMS7003;64741;41.730;44.788;2023-03-16T01:59:11;15.8;14.6;10.8
76045;PMS7003;64741;41.730;44.788;2023-03-16T02:04:13;14.8;12.4;9.2
76045;PMS7003;64741;41.730;44.788;2023-03-16T02:09:10;15.6;12.4;9.8
76045;PMS7003;64741;41.730;44.788;2023-03-16T02:14:10;14.4;12.8;10.2
76045;PMS7003;64741;41.730;44.788;2023-03-16T02:19:11;15.6;14;10
76045;PMS7003;64741;41.730;44.788;2023-03-16T02:24:12;16;14.8;10.5
76045;PMS7003;64741;41.730;44.788;2023-03-16T02:29:22;17;14.6;10.6
76045;PMS7003;64741;41.730;44.788;2023-03-16T02:34:12;16.6;14.2;11.4
76045;PMS7003;64741;41.730;44.788;2023-03-16T02:39:10;15.2;13.6;10.2
76045;PMS7003;64741;41.730;44.788;2023-03-16T02:44:12;15.2;13.6;9.8
76045;PMS7003;64741;41.730;44.788;2023-03-16T02:49:10;17;14.6;10.8
76045;PMS7003;64741;41.730;44.788;2023-03-16T02:54:10;15.4;14.2;10
76045;PMS7003;64741;41.730;44.788;2023-03-16T02:59:10;15.8;13.8;9.8
76045;PMS7003;64741;41.730;44.788;2023-03-16T03:03:32;15.4;13;9.4
76045;PMS7003;64741;41.730;44.788;2023-03-16T03:09:18;14.4;13.4;9.4
76045;PMS7003;64741;41.730;44.788;2023-03-16T03:13:54;14;13;9.6
76045;PMS7003;64741;41.730;44.788;2023-03-16T03:19:18;13.6;12.4;9.2
76045;PMS7003;64741;41.730;44.788;2023-03-16T03:24:12;14.2;12.4;10
76045;PMS7003;64741;41.730;44.788;2023-03-16T03:29:12;13;11;8.2
76045;PMS7003;64741;41.730;44.788;2023-03-16T03:34:10;14.4;12.8;9
76045;PMS7003;64741;41.730;44.788;2023-03-16T03:39:18;15.6;13.6;10
76045;PMS7003;64741;41.730;44.788;2023-03-16T03:43:28;14.4;12.2;9.4
76045;PMS7003;64741;41.730;44.788;2023-03-16T03:49:08;13.6;12.4;8.8
76045;PMS7003;64741;41.730;44.788;2023-03-16T03:54:18;11.8;10;7.2
76045;PMS7003;64741;41.730;44.788;2023-03-16T03:59:10;14.2;11.8;9.2
76045;PMS7003;64741;41.730;44.788;2023-03-16T04:03:56;15.6;13;9.2
76045;PMS7003;64741;41.730;44.788;2023-03-16T04:09:06;14.2;12.6;9.2
76045;PMS7003;64741;41.730;44.788;2023-03-16T04:14:04;16;13.4;9
76045;PMS7003;64741;41.730;44.788;2023-03-16T04:19:12;15.4;12.8;9.6
76045;PMS7003;64741;41.730;44.788;2023-03-16T04:24:10;15.4;13.8;9.4
76045;PMS7003;64741;41.730;44.788;2023-03-16T04:29:10;15.2;13;10.2
76045;PMS7003;64741;41.730;44.788;2023-03-16T04:34:08;15;13.4;10.2
76045;PMS7003;64741;41.730;44.788;2023-03-16T04:39:18;13.6;12.2;8.8
76045;PMS7003;64741;41.730;44.788;2023-03-16T04:44:10;13.6;11.6;8.6
76045;PMS7003;64741;41.730;44.788;2023-03-16T04:49:10;14.4;12.6;9.8
76045;PMS7003;64741;41.730;44.788;2023-03-16T04:54:12;15.2;12.4;9.6
76045;PMS7003;64741;41.730;44.788;2023-03-16T04:59:16;14.6;12.2;9
76045;PMS7003;64741;41.730;44.788;2023-03-16T05:03:34;14.2;11.8;8.8
76045;PMS7003;64741;41.730;44.788;2023-03-16T05:09:10;14.6;12.2;9
76045;PMS7003;64741;41.730;44.788;2023-03-16T05:14:18;13.4;12;8.6
76045;PMS7003;64741;41.730;44.788;2023-03-16T05:19:10;14.6;12.8;9.6
76045;PMS7003;64741;41.730;44.788;2023-03-16T05:24:10;14.4;13.2;9.8
76045;PMS7003;64741;41.730;44.788;2023-03-16T05:29:10;15.8;13.6;10.2
76045;PMS7003;64741;41.730;44.788;2023-03-16T05:34:18;13.4;11.8;8.2
76045;PMS7003;64741;41.730;44.788;2023-03-16T05:39:12;14.6;11.4;8.6
76045;PMS7003;64741;41.730;44.788;2023-03-16T05:43:58;12.4;11;8.8
76045;PMS7003;64741;41.730;44.788;2023-03-16T05:49:12;12.2;11.2;8.4
76045;PMS7003;64741;41.730;44.788;2023-03-16T05:54:08;13;10.6;8.2
76045;PMS7003;64741;41.730;44.788;2023-03-16T05:59:08;13.4;12.2;9.6
76045;PMS7003;64741;41.730;44.788;2023-03-16T06:03:46;11.2;10.8;8.4
76045;PMS7003;64741;41.730;44.788;2023-03-16T06:09:16;13;11.4;8.8
76045;PMS7003;64741;41.730;44.788;2023-03-16T06:14:16;12.6;11.4;8.6
76045;PMS7003;64741;41.730;44.788;2023-03-16T06:19:08;13.8;11.4;8.4
76045;PMS7003;64741;41.730;44.788;2023-03-16T06:24:16;15.6;12.6;9.8
76045;PMS7003;64741;41.730;44.788;2023-03-16T06:29:10;13.2;12.4;9.2
76045;PMS7003;64741;41.730;44.788;2023-03-16T06:34:10;13;11.8;9
76045;PMS7003;64741;41.730;44.788;2023-03-16T06:39:08;11.2;10.6;8
76045;PMS7003;64741;41.730;44.788;2023-03-16T06:44:16;12.4;10.8;8.6
76045;PMS7003;64741;41.730;44.788;2023-03-16T06:48:54;13;10.8;8.6
76045;PMS7003;64741;41.730;44.788;2023-03-16T06:54:08;12.2;10.8;7.6
76045;PMS7003;64741;41.730;44.788;2023-03-16T06:59:16;12.4;10.8;7.6
76045;PMS7003;64741;41.730;44.788;2023-03-16T07:04:08;12.2;10.4;7.2
76045;PMS7003;64741;41.730;44.788;2023-03-16T07:09:10;11.6;9.4;6.6
76045;PMS7003;64741;41.730;44.788;2023-03-16T07:14:10;11.4;10.4;8
76045;PMS7003;64741;41.730;44.788;2023-03-16T07:19:06;11.2;9.6;7.6
76045;PMS7003;64741;41.730;44.788;2023-03-16T07:24:10;12;10.8;7.8
76045;PMS7003;64741;41.730;44.788;2023-03-16T07:29:08;13.2;11.2;8.2
76045;PMS7003;64741;41.730;44.788;2023-03-16T07:34:08;16.5;13.8;11
76045;PMS7003;64741;41.730;44.788;2023-03-16T07:39:06;17.8;15;12
76045;PMS7003;64741;41.730;44.788;2023-03-16T07:44:16;17.8;15.8;11.8
76045;PMS7003;64741;41.730;44.788;2023-03-16T07:49:08;17.6;15.8;11.6
76045;PMS7003;64741;41.730;44.788;2023-03-16T07:54:10;18.2;16.4;12.4
76045;PMS7003;64741;41.730;44.788;2023-03-16T07:59:12;17.8;17;13.8
76045;PMS7003;64741;41.730;44.788;2023-03-16T08:04:16;19.6;17.2;12.6
76045;PMS7003;64741;41.730;44.788;2023-03-16T08:09:10;20;19;14.8
76045;PMS7003;64741;41.730;44.788;2023-03-16T08:14:06;21.6;18.4;14.4
76045;PMS7003;64741;41.730;44.788;2023-03-16T08:19:16;22;19.8;14.2
76045;PMS7003;64741;41.730;44.788;2023-03-16T08:24:08;22.4;19.4;15.2
76045;PMS7003;64741;41.730;44.788;2023-03-16T08:29:08;22.2;19.6;14.4
76045;PMS7003;64741;41.730;44.788;2023-03-16T08:34:08;20;18.6;14
76045;PMS7003;64741;41.730;44.788;2023-03-16T08:39:18;21.6;19.6;15.2
76045;PMS7003;64741;41.730;44.788;2023-03-16T08:44:12;21;19.4;13.8
76045;PMS7003;64741;41.730;44.788;2023-03-16T08:49:16;22;19.2;14.6
76045;PMS7003;64741;41.730;44.788;2023-03-16T08:54:04;19;17.2;13
76045;PMS7003;64741;41.730;44.788;2023-03-16T08:59:10;22.6;19;14.2
76045;PMS7003;64741;41.730;44.788;2023-03-16T09:04:10;18.2;16.4;12.4
76045;PMS7003;64741;41.730;44.788;2023-03-16T09:09:08;19.6;17;13.2
76045;PMS7003;64741;41.730;44.788;2023-03-16T09:14:08;19.2;16.8;12.2
76045;PMS7003;64741;41.730;44.788;2023-03-16T09:19:10;18;15.8;12.6
76045;PMS7003;64741;41.730;44.788;2023-03-16T09:24:08;19;16.6;12.2
76045;PMS7003;64741;41.730;44.788;2023-03-16T09:29:16;16.8;15.6;12.8
76045;PMS7003;64741;41.730;44.788;2023-03-16T09:34:08;16.6;15.6;12.4
76045;PMS7003;64741;41.730;44.788;2023-03-16T09:39:10;20.8;17.4;13
76045;PMS7003;64741;41.730;44.788;2023-03-16T09:44:20;33.6;29;20.2
76045;PMS7003;64741;41.730;44.788;2023-03-16T09:49:17;47.8;39;26
76045;PMS7003;64741;41.730;44.788;2023-03-16T09:53:55;59.6;46.4;30.6
76045;PMS7003;64741;41.730;44.788;2023-03-16T09:59:09;63.8;50.2;34
76045;PMS7003;64741;41.730;44.788;2023-03-16T10:04:14;68.8;52;36
76045;PMS7003;64741;41.730;44.788;2023-03-16T10:09:15;71.8;55.4;36.8
76045;PMS7003;64741;41.730;44.788;2023-03-16T10:14:11;73.2;58.2;39.8
76045;PMS7003;64741;41.730;44.788;2023-03-16T10:19:12;71.6;57.8;39.6
76045;PMS7003;64741;41.730;44.788;2023-03-16T10:24:12;68.4;54.6;37.6
76045;PMS7003;64741;41.730;44.788;2023-03-16T10:29:12;72;58;40.2
76045;PMS7003;64741;41.730;44.788;2023-03-16T10:34:10;71.2;57;38.2
76045;PMS7003;64741;41.730;44.788;2023-03-16T10:39:11;70.4;55;37.6
76045;PMS7003;64741;41.730;44.788;2023-03-16T10:44:09;68.8;54.6;38.4
76045;PMS7003;64741;41.730;44.788;2023-03-16T10:49:18;68.6;53.4;36.6
76045;PMS7003;64741;41.730;44.788;2023-03-16T10:54:12;66.2;51.6;36.2
76045;PMS7003;64741;41.730;44.788;2023-03-16T10:59:12;67;52.6;36.6
76045;PMS7003;64741;41.730;44.788;2023-03-16T11:04:10;67.4;51.4;34.6
76045;PMS7003;64741;41.730;44.788;2023-03-16T11:09:18;67;51.2;33.8
76045;PMS7003;64741;41.730;44.788;2023-03-16T11:14:12;65.8;51;34
76045;PMS7003;64741;41.730;44.788;2023-03-16T11:19:11;63;49.6;34
76045;PMS7003;64741;41.730;44.788;2023-03-16T11:24:19;64.4;49.8;33.2
76045;PMS7003;64741;41.730;44.788;2023-03-16T11:29:13;63;49.2;32.8
76045;PMS7003;64741;41.730;44.788;2023-03-16T11:34:11;59.8;46.6;31.4
76045;PMS7003;64741;41.730;44.788;2023-03-16T11:39:05;60.6;46.2;31.4
76045;PMS7003;64741;41.730;44.788;2023-03-16T11:44:19;61;48;32.4
76045;PMS7003;64741;41.730;44.788;2023-03-16T11:49:17;67.6;51.8;35.2
76045;PMS7003;64741;41.730;44.788;2023-03-16T11:54:25;62.6;48.2;32.8
76045;PMS7003;64741;41.730;44.788;2023-03-16T11:59:22;59;47.8;33
76045;PMS7003;64741;41.730;44.788;2023-03-16T12:04:17;68.8;52.4;36.4
76045;PMS7003;64741;41.730;44.788;2023-03-16T12:09:16;63.4;49.6;34.2
76045;PMS7003;64741;41.730;44.788;2023-03-16T12:14:12;57.6;45.6;31
76045;PMS7003;64741;41.730;44.788;2023-03-16T12:19:11;58.2;44.6;31.2
76045;PMS7003;64741;41.730;44.788;2023-03-16T12:24:13;55.8;44.2;31.2
76045;PMS7003;64741;41.730;44.788;2023-03-16T12:29:13;49.8;40.4;28.4
76045;PMS7003;64741;41.730;44.788;2023-03-16T12:33:33;46;38;27
76045;PMS7003;64741;41.730;44.788;2023-03-16T12:39:11;38.5;32;23.2
76045;PMS7003;64741;41.730;44.788;2023-03-16T12:44:13;31.8;28.3;20.8
76045;PMS7003;64741;41.730;44.788;2023-03-16T12:49:10;28.6;24.4;18.2
76045;PMS7003;64741;41.730;44.788;2023-03-16T12:54:19;24.2;21;15.8
76045;PMS7003;64741;41.730;44.788;2023-03-16T12:58:39;21.4;19.4;15
76045;PMS7003;64741;41.730;44.788;2023-03-16T13:04:09;18.2;16.6;12.6
76045;PMS7003;64741;41.730;44.788;2023-03-16T13:09:08;16;13.6;11
76045;PMS7003;64741;41.730;44.788;2023-03-16T13:14:07;19.4;17;13.2
76045;PMS7003;64741;41.730;44.788;2023-03-16T13:19:27;20;19.4;15
76045;PMS7003;64741;41.730;44.788;2023-03-16T13:24:13;24.2;21.8;16.6
76045;PMS7003;64741;41.730;44.788;2023-03-16T13:29:18;24.2;20.4;15.6
76045;PMS7003;64741;41.730;44.788;2023-03-16T13:34:13;26.4;23;17.4
76045;PMS7003;64741;41.730;44.788;2023-03-16T13:39:19;25;23.2;17.8
76045;PMS7003;64741;41.730;44.788;2023-03-16T13:44:11;26.4;23;17.6
76045;PMS7003;64741;41.730;44.788;2023-03-16T13:49:03;24.6;22.6;17.4
76045;PMS7003;64741;41.730;44.788;2023-03-16T13:54:21;27;24;18
76045;PMS7003;64741;41.730;44.788;2023-03-16T13:59:10;25.4;23;18
76045;PMS7003;64741;41.730;44.788;2023-03-16T14:04:11;26.4;24.2;18.4
76045;PMS7003;64741;41.730;44.788;2023-03-16T14:09:14;25.8;22;17
76045;PMS7003;64741;41.730;44.788;2023-03-16T14:14:12;26.2;23.8;17.6
76045;PMS7003;64741;41.730;44.788;2023-03-16T14:19:15;26.2;23.6;18.4
76045;PMS7003;64741;41.730;44.788;2023-03-16T14:24:23;24.8;21.8;16.4
76045;PMS7003;64741;41.730;44.788;2023-03-16T14:29:24;26;22.8;17.4
76045;PMS7003;64741;41.730;44.788;2023-03-16T14:34:19;26;23.8;18.4
76045;PMS7003;64741;41.730;44.788;2023-03-16T14:39:11;27;24.4;18.6
76045;PMS7003;64741;41.730;44.788;2023-03-16T14:44:14;24;21.8;17
76045;PMS7003;64741;41.730;44.788;2023-03-16T14:49:20;23.8;21.8;17
76045;PMS7003;64741;41.730;44.788;2023-03-16T14:54:13;25.2;21.8;16.8
76045;PMS7003;64741;41.730;44.788;2023-03-16T14:59:18;25.2;22.4;17
76045;PMS7003;64741;41.730;44.788;2023-03-16T15:04:19;24;23;16.4
76045;PMS7003;64741;41.730;44.788;2023-03-16T15:09:16;26;23.4;17.8
76045;PMS7003;64741;41.730;44.788;2023-03-16T15:14:12;27.8;24.6;19
76045;PMS7003;64741;41.730;44.788;2023-03-16T15:19:08;28.2;26;18.8
76045;PMS7003;64741;41.730;44.788;2023-03-16T15:24:10;27.2;24.8;18.2
76045;PMS7003;64741;41.730;44.788;2023-03-16T15:28:36;25.6;23.4;18.2
76045;PMS7003;64741;41.730;44.788;2023-03-16T15:34:10;25.2;23;17.8
76045;PMS7003;64741;41.730;44.788;2023-03-16T15:39:19;24.6;23;18
76045;PMS7003;64741;41.730;44.788;2023-03-16T15:44:11;24.6;22.6;17
76045;PMS7003;64741;41.730;44.788;2023-03-16T15:49:12;27.2;24.2;17.8
76045;PMS7003;64741;41.730;44.788;2023-03-16T15:53:55;26.8;24.5;18
76045;PMS7003;64741;41.730;44.788;2023-03-16T15:59:18;25.2;22.6;17.8
76045;PMS7003;64741;41.730;44.788;2023-03-16T16:04:13;25.4;23.4;17.2
76045;PMS7003;64741;41.730;44.788;2023-03-16T16:09:10;22.8;21.2;16.8
76045;PMS7003;64741;41.730;44.788;2023-03-16T16:14:11;25;22.6;16.8
76045;PMS7003;64741;41.730;44.788;2023-03-16T16:19:11;41.6;33.4;23.8
76045;PMS7003;64741;41.730;44.788;2023-03-16T16:24:10;63;49.2;33.6
76045;PMS7003;64741;41.730;44.788;2023-03-16T16:29:11;76.6;63.4;42.8
76045;PMS7003;64741;41.730;44.788;2023-03-16T16:34:10;82;70.4;48
76045;PMS7003;64741;41.730;44.788;2023-03-16T16:39:04;96.6;82.4;52.8
76045;PMS7003;64741;41.730;44.788;2023-03-16T16:44:19;96.4;85.6;57
76045;PMS7003;64741;41.730;44.788;2023-03-16T16:49:13;99;87.8;57
76045;PMS7003;64741;41.730;44.788;2023-03-16T16:54:13;93.8;81.8;54.2
76045;PMS7003;64741;41.730;44.788;2023-03-16T16:59:13;96.6;83.4;54.4
76045;PMS7003;64741;41.730;44.788;2023-03-16T17:04:12;93.4;82;52.6
76045;PMS7003;64741;41.730;44.788;2023-03-16T17:08:56;94.2;81.2;52.2
76045;PMS7003;64741;41.730;44.788;2023-03-16T17:14:14;90.6;79.4;52.4
76045;PMS7003;64741;41.730;44.788;2023-03-16T17:18:40;91.8;79.6;52
76045;PMS7003;64741;41.730;44.788;2023-03-16T17:24:18;82.8;74;49
76045;PMS7003;64741;41.730;44.788;2023-03-16T17:29:09;87.8;76.6;51.2
76045;PMS7003;64741;41.730;44.788;2023-03-16T17:34:19;83.4;74.8;48.6
76045;PMS7003;64741;41.730;44.788;2023-03-16T17:39:14;83.8;73.8;48.6
76045;PMS7003;64741;41.730;44.788;2023-03-16T17:44:11;81;69;46.2
76045;PMS7003;64741;41.730;44.788;2023-03-16T17:49:11;79.4;68.4;45.6
76045;PMS7003;64741;41.730;44.788;2023-03-16T17:54:18;76.4;67;45.6
76045;PMS7003;64741;41.730;44.788;2023-03-16T17:59:13;78.2;69.8;46.4
76045;PMS7003;64741;41.730;44.788;2023-03-16T18:04:14;79.4;66.4;45.4
76045;PMS7003;64741;41.730;44.788;2023-03-16T18:09:19;77.8;66.8;43.8
76045;PMS7003;64741;41.730;44.788;2023-03-16T18:14:12;76.4;64.2;43.4
76045;PMS7003;64741;41.730;44.788;2023-03-16T18:19:15;74.8;64;43.4
76045;PMS7003;64741;41.730;44.788;2023-03-16T18:24:13;74.6;61.4;41
76045;PMS7003;64741;41.730;44.788;2023-03-16T18:29:10;74.4;59.4;39.6
76045;PMS7003;64741;41.730;44.788;2023-03-16T18:34:17;72;60;39
76045;PMS7003;64741;41.730;44.788;2023-03-16T18:39:14;71.6;57.6;38
76045;PMS7003;64741;41.730;44.788;2023-03-16T18:44:13;73.2;57.6;38.8
76045;PMS7003;64741;41.730;44.788;2023-03-16T18:49:11;70.6;56.2;37
76045;PMS7003;64741;41.730;44.788;2023-03-16T18:54:19;70;54.6;37.2
76045;PMS7003;64741;41.730;44.788;2023-03-16T18:59:10;68.6;51.8;35.2
76045;PMS7003;64741;41.730;44.788;2023-03-16T19:04:15;68.4;53;34.6
76045;PMS7003;64741;41.730;44.788;2023-03-16T19:09:13;67.4;52.6;35
76045;PMS7003;64741;41.730;44.788;2023-03-16T19:14:19;62.6;47.8;31.8
76045;PMS7003;64741;41.730;44.788;2023-03-16T19:19:12;47.4;38.8;26.2
76045;PMS7003;64741;41.730;44.788;2023-03-16T19:24:13;36.6;30.2;20.4
76045;PMS7003;64741;41.730;44.788;2023-03-16T19:29:18;25;22.6;16.8
76045;PMS7003;64741;41.730;44.788;2023-03-16T19:33:56;17.6;16;11.8
76045;PMS7003;64741;41.730;44.788;2023-03-16T19:39:08;13;11.2;8.8
76045;PMS7003;64741;41.730;44.788;2023-03-16T19:43:55;12.2;10.4;7.4
76045;PMS7003;64741;41.730;44.788;2023-03-16T19:49:04;9;7.2;5.2
76045;PMS7003;64741;41.730;44.788;2023-03-16T19:54:16;6.8;5.2;3.8
76045;PMS7003;64741;41.730;44.788;2023-03-16T19:59:18;6.4;6.2;4.6
76045;PMS7003;64741;41.730;44.788;2023-03-16T20:04:15;8.2;7.6;5.6
76045;PMS7003;64741;41.730;44.788;2023-03-16T20:09:12;12.4;11.2;8.4
76045;PMS7003;64741;41.730;44.788;2023-03-16T20:14:14;14;12.4;9.2
76045;PMS7003;64741;41.730;44.788;2023-03-16T20:19:11;16.4;15.2;11
76045;PMS7003;64741;41.730;44.788;2023-03-16T20:24:11;19.3;16.3;12
76045;PMS7003;64741;41.730;44.788;2023-03-16T20:29:14;20.2;17.6;14
76045;PMS7003;64741;41.730;44.788;2023-03-16T20:34:11;20.2;17.6;12.6
76045;PMS7003;64741;41.730;44.788;2023-03-16T20:39:19;18.2;17;12.2
76045;PMS7003;64741;41.730;44.788;2023-03-16T20:44:11;17.8;16;12.2
76045;PMS7003;64741;41.730;44.788;2023-03-16T20:49:27;16.6;15.4;11.8
76045;PMS7003;64741;41.730;44.788;2023-03-16T20:54:10;16.4;14.4;10.8
76045;PMS7003;64741;41.730;44.788;2023-03-16T20:59:19;15.6;13;9.8
76045;PMS7003;64741;41.730;44.788;2023-03-16T21:04:14;15.2;12.8;9.4
76045;PMS7003;64741;41.730;44.788;2023-03-16T21:09:10;14.4;12.6;9.2
76045;PMS7003;64741;41.730;44.788;2023-03-16T21:14:13;13.6;10.6;7.8
76045;PMS7003;64741;41.730;44.788;2023-03-16T21:19:11;18.2;15.2;10.8
76045;PMS7003;64741;41.730;44.788;2023-03-16T21:24:11;21.4;17.8;12.8
76045;PMS7003;64741;41.730;44.788;2023-03-16T21:29:11;21.8;18.8;13.4
76045;PMS7003;64741;41.730;44.788;2023-03-16T21:34:13;22;19;12.8
76045;PMS7003;64741;41.730;44.788;2023-03-16T21:39:16;24.2;20;15.4
76045;PMS7003;64741;41.730;44.788;2023-03-16T21:44:18;24;21.2;15
76045;PMS7003;64741;41.730;44.788;2023-03-16T21:49:12;23.8;20.4;14.6
76045;PMS7003;64741;41.730;44.788;2023-03-16T21:54:11;22.4;19.2;13.6
76045;PMS7003;64741;41.730;44.788;2023-03-16T21:59:18;23.2;20.4;15
76045;PMS7003;64741;41.730;44.788;2023-03-16T22:04:12;23.2;19;14.8
76045;PMS7003;64741;41.730;44.788;2023-03-16T22:09:14;21.6;19.6;14
76045;PMS7003;64741;41.730;44.788;2023-03-16T22:14:12;24.8;20;14.6
76045;PMS7003;64741;41.730;44.788;2023-03-16T22:19:18;20.8;19.2;14
76045;PMS7003;64741;41.730;44.788;2023-03-16T22:23:57;23.4;19.4;14.8
76045;PMS7003;64741;41.730;44.788;2023-03-16T22:29:16;20.4;17.6;11.6
76045;PMS7003;64741;41.730;44.788;2023-03-16T22:34:23;20.8;18.8;12.6
76045;PMS7003;64741;41.730;44.788;2023-03-16T22:39:10;19.2;17.4;12.6
76045;PMS7003;64741;41.730;44.788;2023-03-16T22:44:12;20.4;17.4;12.2
76045;PMS7003;64741;41.730;44.788;2023-03-16T22:49:09;18.4;16.4;12
76045;PMS7003;64741;41.730;44.788;2023-03-16T22:54:18;20.2;16.6;12.4
76045;PMS7003;64741;41.730;44.788;2023-03-16T22:59:13;19.8;18.2;13.2
76045;PMS7003;64741;41.730;44.788;2023-03-16T23:04:17;20.2;17.6;12.8
76045;PMS7003;64741;41.730;44.788;2023-03-16T23:09:19;20.4;18;13
76045;PMS7003;64741;41.730;44.788;2023-03-16T23:14:13;20;16.8;12.4
76045;PMS7003;64741;41.730;44.788;2023-03-16T23:19:19;20.4;16.2;12
76045;PMS7003;64741;41.730;44.788;2023-03-16T23:24:10;17.8;15.6;10.6
76045;PMS7003;64741;41.730;44.788;2023-03-16T23:29:11;17.2;15.6;11
76045;PMS7003;64741;41.730;44.788;2023-03-16T23:34:15;20.4;16.4;11.6
76045;PMS7003;64741;41.730;44.788;2023-03-16T23:39:11;17.8;15.4;11
76045;PMS7003;64741;41.730;44.788;2023-03-16T23:44:07;16.6;15.2;11.8
76045;PMS7003;64741;41.730;44.788;2023-03-16T23:49:12;19.2;15.2;11.8
76045;PMS7003;64741;41.730;44.788;2023-03-16T23:53:29;18.2;16.2;11.8
76045;PMS7003;64741;41.730;44.788;2023-03-16T23:59:10;16.6;15.6;11.6
